Time;durP1;ratioP1;P1;durP2;ratioP2;P2;SDS_P1;SDS_P2;PMS_P1;PMS_P2;Temp;Humidity;BMP_temperature;BMP_pressure;BME280_temperature;BME280_humidity;BME280_pressure;Samples;Min_cycle;Max_cycle;Signal;HPM_P1;HPM_P2
2022/10/18 06:18:38;;;;;;;5.15;1.88;;;21.70;94.20;;;;;;5977691;23;45376;-74
2022/10/18 10:11:39;;;;;;;11.95;7.40;;;21.60;94.30;;;;;;6214535;22;45327;-81
2022/10/18 10:14:16;;;;;;;33.08;9.68;;;21.60;94.40;;;;;;6214720;22;45313;-73
2022/10/18 10:16:52;;;;;;;20.73;7.65;;;20.90;94.40;;;;;;6214979;22;46934;-74
2022/10/18 10:19:23;;;;;;;13.35;7.40;;;20.90;94.00;;;;;;6214553;22;45569;-74
2022/10/18 10:21:53;;;;;;;16.30;8.63;;;20.90;94.00;;;;;;6214550;22;45265;-74
2022/10/18 10:24:26;;;;;;;23.10;9.07;;;20.90;94.10;;;;;;6214836;22;45247;-74
2022/10/18 10:27:01;;;;;;;24.75;8.73;;;20.90;94.20;;;;;;6215123;22;48005;-74
2022/10/18 10:30:04;;;;;;;20.45;8.35;;;20.90;94.20;;;;;;6216591;22;45192;-74
2022/10/18 10:32:45;;;;;;;15.90;9.23;;;20.80;94.20;;;;;;6215750;22;45447;-74
2022/10/18 10:35:21;;;;;;;18.80;8.65;;;20.90;94.10;;;;;;6215588;22;45276;-74
2022/10/18 10:37:52;;;;;;;21.05;9.27;;;20.90;94.10;;;;;;6214901;22;46470;-74
2022/10/18 10:40:21;;;;;;;17.88;8.90;;;20.90;94.00;;;;;;6214294;22;45435;-74
2022/10/18 10:42:58;;;;;;;15.25;8.77;;;20.90;94.00;;;;;;6214906;22;45237;-74
2022/10/18 10:45:27;;;;;;;15.10;8.90;;;20.90;94.00;;;;;;6214952;22;45312;-74
2022/10/18 10:48:07;;;;;;;17.38;10.05;;;20.90;94.00;;;;;;6214226;22;47214;-74
2022/10/18 10:50:49;;;;;;;16.48;8.90;;;20.90;94.00;;;;;;6214048;22;45815;-74
2022/10/18 10:53:35;;;;;;;16.35;8.88;;;20.90;94.00;;;;;;6215036;22;45232;-74
2022/10/18 10:56:03;;;;;;;17.13;10.00;;;20.90;93.90;;;;;;6214288;22;45315;-74
2022/10/18 10:58:35;;;;;;;16.88;9.48;;;20.90;94.00;;;;;;6214717;22;45307;-74
2022/10/18 11:01:21;;;;;;;15.68;9.57;;;20.90;93.90;;;;;;6215781;22;45282;-74
2022/10/18 11:03:52;;;;;;;16.60;9.55;;;20.90;94.00;;;;;;6214905;22;45249;-75
2022/10/18 11:06:47;;;;;;;15.85;9.77;;;20.90;94.00;;;;;;6214507;22;45267;-74
2022/10/18 11:09:30;;;;;;;16.92;10.07;;;20.90;94.00;;;;;;6213243;22;48544;-74
2022/10/18 11:12:05;;;;;;;16.40;10.30;;;20.80;94.00;;;;;;6214217;22;45291;-74
2022/10/18 11:14:38;;;;;;;14.98;9.27;;;20.90;94.00;;;;;;6185418;22;45425;-74
2022/10/18 11:17:19;;;;;;;16.42;10.02;;;20.90;94.00;;;;;;6184893;23;45228;-74
2022/10/18 11:20:01;;;;;;;18.20;11.25;;;20.90;94.00;;;;;;6184439;23;45222;-72
2022/10/18 11:22:33;;;;;;;15.38;9.82;;;20.90;94.40;;;;;;6183243;23;45272;-73
2022/10/18 11:25:02;;;;;;;19.67;9.73;;;20.90;94.40;;;;;;6184509;23;45373;-72
2022/10/18 11:27:34;;;;;;;22.58;9.45;;;21.00;94.70;;;;;;6185546;23;45253;-73
2022/10/18 11:30:19;;;;;;;50.53;12.25;;;21.00;95.30;;;;;;6184909;23;45386;-71
2022/10/18 11:32:56;;;;;;;26.55;9.48;;;21.00;96.10;;;;;;6182671;23;45222;-72
2022/10/18 11:35:37;;;;;;;21.88;8.50;;;20.90;96.70;;;;;;6181614;23;45388;-73
2022/10/18 11:38:15;;;;;;;20.05;8.63;;;20.90;96.20;;;;;;6182383;23;45292;-72
2022/10/18 11:40:56;;;;;;;17.33;8.05;;;20.90;95.80;;;;;;6181765;23;46618;-73
2022/10/18 11:43:27;;;;;;;13.43;7.10;;;20.90;95.90;;;;;;6182683;23;45170;-73
2022/10/18 11:46:00;;;;;;;14.20;8.25;;;20.80;95.80;;;;;;6182141;23;45323;-73
2022/10/18 11:48:47;;;;;;;15.98;7.18;;;20.80;95.80;;;;;;6181521;23;45277;-72
2022/10/18 11:51:23;;;;;;;18.88;7.30;;;20.80;95.80;;;;;;6182676;23;45389;-72
2022/10/18 11:54:05;;;;;;;16.40;7.28;;;20.80;95.90;;;;;;6183067;23;45153;-72
2022/10/18 11:56:42;;;;;;;13.27;6.65;;;20.80;96.00;;;;;;6183090;23;45466;-73
2022/10/18 11:59:27;;;;;;;11.70;7.38;;;20.80;96.00;;;;;;6182698;23;45418;-72
2022/10/18 12:02:12;;;;;;;13.82;7.65;;;20.80;96.00;;;;;;6182858;23;45263;-72
2022/10/18 12:04:47;;;;;;;11.80;6.88;;;20.80;96.00;;;;;;6182421;23;45406;-72
2022/10/18 12:07:18;;;;;;;11.40;6.60;;;20.80;96.10;;;;;;6182144;23;45510;-72
2022/10/18 12:09:47;;;;;;;10.15;6.38;;;20.80;96.10;;;;;;6182407;23;45480;-72
2022/10/18 12:12:18;;;;;;;11.95;6.28;;;20.80;96.10;;;;;;6183350;23;45293;-72
2022/10/18 12:14:48;;;;;;;10.60;6.85;;;20.80;96.10;;;;;;6183240;23;45349;-73
2022/10/18 12:17:20;;;;;;;9.68;6.45;;;20.80;96.10;;;;;;6183694;23;45241;-72
2022/10/18 12:19:49;;;;;;;10.90;6.30;;;20.80;96.10;;;;;;6184376;23;45309;-73
2022/10/18 12:22:22;;;;;;;11.57;6.93;;;20.80;96.10;;;;;;6184124;23;47368;-73
2022/10/18 12:24:49;;;;;;;10.82;6.70;;;20.80;96.10;;;;;;6182940;23;45190;-73
2022/10/18 12:27:17;;;;;;;9.80;6.10;;;20.80;96.20;;;;;;6184645;23;45194;-72
2022/10/18 12:29:51;;;;;;;12.13;6.32;;;20.80;96.30;;;;;;6183724;23;45199;-73
2022/10/18 12:32:22;;;;;;;9.50;6.20;;;20.80;96.30;;;;;;6184242;23;45319;-73
2022/10/18 12:34:52;;;;;;;10.95;5.72;;;20.80;96.30;;;;;;6184447;23;45289;-73
2022/10/18 12:37:48;;;;;;;9.90;6.60;;;20.80;96.40;;;;;;6184285;23;45230;-72
2022/10/18 12:40:20;;;;;;;11.82;6.85;;;20.80;96.50;;;;;;6184735;23;45232;-73
2022/10/18 12:42:49;;;;;;;9.07;6.05;;;20.80;96.50;;;;;;6184344;23;45457;-72
2022/10/18 12:45:35;;;;;;;8.05;5.80;;;20.80;96.60;;;;;;6183467;23;45248;-71
2022/10/18 12:48:05;;;;;;;8.90;5.65;;;20.80;96.60;;;;;;6182934;23;45440;-72
2022/10/18 12:50:38;;;;;;;8.68;5.63;;;20.80;96.80;;;;;;6182914;23;45157;-73
2022/10/18 12:53:17;;;;;;;11.02;5.55;;;20.80;96.90;;;;;;6183571;23;48421;-73
2022/10/18 12:55:46;;;;;;;8.02;5.47;;;20.80;96.90;;;;;;6182699;23;45241;-72
2022/10/18 12:58:30;;;;;;;9.63;5.28;;;20.80;96.80;;;;;;6181939;23;45374;-72
2022/10/18 13:01:02;;;;;;;9.23;6.28;;;20.80;96.80;;;;;;6182081;23;45288;-72
2022/10/18 13:03:55;;;;;;;9.70;5.88;;;20.80;96.80;;;;;;6182701;23;47623;-72
2022/10/18 13:06:22;;;;;;;10.07;5.45;;;20.80;96.80;;;;;;6181333;23;45323;-72
2022/10/18 13:09:16;;;;;;;9.90;5.82;;;20.80;96.80;;;;;;6182695;23;45284;-73
2022/10/18 13:11:43;;;;;;;10.13;5.63;;;20.80;96.80;;;;;;6180050;23;45343;-70
2022/10/18 13:14:38;;;;;;;10.30;5.55;;;20.80;96.80;;;;;;6181038;23;45491;-70
2022/10/18 13:17:15;;;;;;;11.20;5.13;;;20.90;96.70;;;;;;6182609;23;45287;-71
2022/10/18 13:19:51;;;;;;;14.30;5.75;;;20.90;97.10;;;;;;6182666;23;45340;-74
2022/10/18 13:22:33;;;;;;;10.45;5.28;;;20.90;97.00;;;;;;6182892;23;45413;-74
2022/10/18 13:25:10;;;;;;;7.88;4.82;;;20.90;97.00;;;;;;6181459;23;45272;-73
2022/10/18 13:27:46;;;;;;;7.43;4.97;;;20.90;97.00;;;;;;6183031;23;45669;-74
2022/10/18 13:30:39;;;;;;;7.95;5.40;;;20.90;97.00;;;;;;6181647;23;45276;-74
2022/10/18 13:33:30;;;;;;;9.55;5.22;;;20.90;97.00;;;;;;6182854;23;45483;-74
2022/10/18 13:35:59;;;;;;;6.45;4.97;;;20.90;97.00;;;;;;6182696;23;46254;-74
2022/10/18 13:38:41;;;;;;;8.98;4.85;;;20.90;97.10;;;;;;6182316;23;45397;-74
2022/10/18 13:41:11;;;;;;;7.55;4.85;;;20.80;97.00;;;;;;6183030;23;45253;-74
2022/10/18 13:44:18;;;;;;;8.32;4.90;;;20.80;97.00;;;;;;6182611;23;45258;-75
2022/10/18 13:47:11;;;;;;;9.27;4.63;;;20.80;97.00;;;;;;6182572;23;47313;-74
2022/10/18 13:49:48;;;;;;;7.30;4.82;;;20.80;96.90;;;;;;6154916;23;45332;-75
2022/10/18 13:52:21;;;;;;;7.13;4.47;;;20.80;96.90;;;;;;6182755;23;45257;-74
2022/10/18 13:55:00;;;;;;;9.30;5.03;;;20.80;96.90;;;;;;6183022;23;45350;-74
2022/10/18 13:57:44;;;;;;;10.02;4.82;;;20.80;96.80;;;;;;6181306;23;47296;-74
2022/10/18 14:00:35;;;;;;;9.43;5.18;;;20.80;96.80;;;;;;6183168;23;45166;-74
2022/10/18 14:03:28;;;;;;;10.02;5.15;;;20.80;96.70;;;;;;6182768;23;45388;-74
2022/10/18 14:06:02;;;;;;;9.27;4.70;;;20.80;96.60;;;;;;6182861;23;45293;-74
2022/10/18 14:08:34;;;;;;;11.75;4.70;;;20.80;96.60;;;;;;6182831;23;48577;-71
2022/10/18 14:11:05;;;;;;;11.35;4.47;;;20.80;96.50;;;;;;6185673;23;45071;-76
2022/10/18 14:13:44;;;;;;;10.90;5.03;;;20.80;96.50;;;;;;6185608;23;45175;-76
2022/10/18 14:16:27;;;;;;;6.28;4.30;;;20.80;96.50;;;;;;6185880;23;45162;-76
2022/10/18 14:19:00;;;;;;;8.57;4.40;;;20.90;96.50;;;;;;6185213;23;46843;-76
2022/10/18 14:21:34;;;;;;;10.70;4.45;;;20.80;96.40;;;;;;6185379;23;45351;-76
2022/10/18 14:24:01;;;;;;;6.63;3.65;;;20.80;96.40;;;;;;6186003;23;45107;-76
2022/10/18 14:26:28;;;;;;;9.05;4.80;;;20.80;96.50;;;;;;6185678;23;45348;-76
2022/10/18 14:29:14;;;;;;;6.60;3.88;;;20.80;96.70;;;;;;6185445;23;47629;-76
2022/10/18 14:31:41;;;;;;;5.55;3.58;;;20.80;96.90;;;;;;6185974;23;45805;-76
2022/10/18 14:34:14;;;;;;;6.10;3.30;;;20.80;97.00;;;;;;6187293;23;45118;-76
2022/10/18 14:36:45;;;;;;;6.05;3.70;;;20.80;97.10;;;;;;6187931;23;45158;-76
2022/10/18 14:39:20;;;;;;;10.45;3.85;;;20.80;97.10;;;;;;6187131;23;46207;-76
2022/10/18 14:41:49;;;;;;;5.90;3.17;;;20.80;97.20;;;;;;6187276;23;45229;-76
2022/10/18 14:44:21;;;;;;;4.95;3.38;;;20.80;97.20;;;;;;6187579;23;45225;-76
2022/10/18 14:46:50;;;;;;;5.57;2.95;;;20.80;97.30;;;;;;6186918;23;45178;-76
2022/10/18 14:49:18;;;;;;;5.45;3.17;;;20.80;97.30;;;;;;6186278;23;45175;-75
2022/10/18 14:51:47;;;;;;;5.25;3.30;;;20.80;97.40;;;;;;6185732;23;45218;-76
2022/10/18 14:54:16;;;;;;;5.03;3.40;;;20.80;97.50;;;;;;6186258;23;45213;-76
2022/10/18 14:56:48;;;;;;;4.85;3.10;;;20.70;97.50;;;;;;6186713;23;45154;-76
2022/10/18 14:59:20;;;;;;;3.40;2.38;;;20.80;97.60;;;;;;6186420;23;47502;-76
2022/10/18 15:01:56;;;;;;;5.68;3.60;;;20.80;97.60;;;;;;6187184;23;45200;-76
2022/10/18 15:04:29;;;;;;;3.22;2.40;;;20.80;97.60;;;;;;6187068;23;45352;-76
2022/10/18 15:06:57;;;;;;;5.03;3.10;;;20.80;97.70;;;;;;6187426;23;45325;-76
2022/10/18 15:09:24;;;;;;;6.18;2.92;;;20.80;97.70;;;;;;6187125;23;46363;-76
2022/10/18 15:11:53;;;;;;;5.15;2.83;;;20.80;97.70;;;;;;6187419;23;45312;-76
2022/10/18 15:14:21;;;;;;;3.25;2.70;;;20.80;97.80;;;;;;6187171;23;45093;-76
2022/10/18 15:16:50;;;;;;;2.95;2.40;;;20.80;97.70;;;;;;6187535;23;45325;-78
2022/10/18 15:19:33;;;;;;;5.03;3.00;;;20.80;97.80;;;;;;6187202;23;46369;-76
2022/10/18 15:22:02;;;;;;;4.45;2.40;;;20.80;97.80;;;;;;6187152;23;45321;-76
2022/10/18 15:24:32;;;;;;;3.72;2.72;;;20.80;97.90;;;;;;6187471;23;45246;-76
2022/10/18 15:27:11;;;;;;;4.95;2.65;;;20.80;97.90;;;;;;6187880;23;45434;-77
2022/10/18 15:29:42;;;;;;;4.35;2.60;;;20.80;97.90;;;;;;6187080;23;47057;-76
2022/10/18 15:32:16;;;;;;;4.10;2.42;;;20.80;98.00;;;;;;6187404;23;45744;-76
2022/10/18 15:34:43;;;;;;;3.40;2.38;;;20.80;97.90;;;;;;6187648;23;45166;-76
2022/10/18 15:37:24;;;;;;;4.97;2.78;;;20.80;98.00;;;;;;6187529;23;45146;-76
2022/10/18 15:40:31;;;;;;;3.60;2.33;;;20.80;98.00;;;;;;6187175;23;47017;-76
2022/10/18 15:42:59;;;;;;;3.10;2.30;;;20.80;98.00;;;;;;6182441;23;45179;-77
2022/10/18 15:45:45;;;;;;;5.95;2.45;;;20.80;97.80;;;;;;6187340;23;45145;-77
2022/10/18 15:48:20;;;;;;;3.17;2.13;;;20.80;98.10;;;;;;6187573;23;45558;-76
2022/10/18 15:50:48;;;;;;;4.63;2.40;;;20.80;98.20;;;;;;6187347;23;45556;-76
2022/10/18 15:53:43;;;;;;;3.78;2.33;;;20.80;98.00;;;;;;6187566;23;45002;-76
2022/10/18 15:56:26;;;;;;;3.78;2.30;;;20.80;98.00;;;;;;6187420;23;45066;-76
2022/10/18 16:02:16;;;;;;;3.63;2.10;;;20.80;98.10;;;;;;6187251;23;45527;-76
2022/10/18 16:04:43;;;;;;;3.00;1.90;;;20.80;98.00;;;;;;6187020;23;45289;-77
2022/10/18 16:07:11;;;;;;;2.88;1.70;;;20.80;98.00;;;;;;6187173;23;45117;-76
2022/10/18 16:09:40;;;;;;;4.18;2.20;;;20.80;98.10;;;;;;6186792;23;45643;-76
2022/10/18 16:12:06;;;;;;;3.90;1.88;;;20.80;98.20;;;;;;6186491;23;46552;-76
2022/10/18 16:14:56;;;;;;;3.38;2.08;;;20.80;98.20;;;;;;6186047;23;45370;-76
2022/10/18 16:17:24;;;;;;;4.18;1.65;;;20.80;98.30;;;;;;6186542;23;45202;-76
2022/10/18 16:19:51;;;;;;;2.63;1.83;;;20.80;98.30;;;;;;6186815;23;45172;-76
2022/10/18 16:22:31;;;;;;;2.15;1.85;;;20.80;98.30;;;;;;6186472;23;45182;-76
2022/10/18 16:24:58;;;;;;;3.90;1.70;;;20.80;98.30;;;;;;6186797;23;45162;-76
2022/10/18 16:27:25;;;;;;;2.88;1.50;;;20.70;98.30;;;;;;6186756;23;45161;-76
2022/10/18 16:29:52;;;;;;;2.33;1.50;;;20.80;98.40;;;;;;6186192;23;45175;-76
2022/10/18 16:32:18;;;;;;;3.72;1.83;;;20.80;98.40;;;;;;6185697;23;47078;-76
2022/10/18 16:34:47;;;;;;;2.65;2.00;;;20.80;98.40;;;;;;6185963;23;45217;-76
2022/10/18 16:37:13;;;;;;;4.28;2.08;;;20.80;98.40;;;;;;6185081;23;45261;-75
2022/10/18 16:39:58;;;;;;;4.28;1.83;;;20.80;98.40;;;;;;6185773;23;45497;-76
2022/10/18 16:42:25;;;;;;;3.53;1.48;;;20.80;98.40;;;;;;6189333;23;47353;-76
2022/10/18 16:44:53;;;;;;;2.80;1.63;;;20.80;98.20;;;;;;6186888;23;45404;-76
2022/10/18 16:47:20;;;;;;;3.13;1.77;;;20.70;98.30;;;;;;6186921;23;45243;-77
2022/10/18 16:49:49;;;;;;;4.05;2.10;;;20.80;98.40;;;;;;6187019;23;45539;-76
2022/10/18 16:52:15;;;;;;;4.05;1.88;;;20.80;98.50;;;;;;6186395;23;45192;-77
2022/10/18 16:54:42;;;;;;;3.40;1.90;;;20.80;98.40;;;;;;6186052;23;45726;-76
2022/10/18 16:57:11;;;;;;;2.72;1.83;;;20.80;98.30;;;;;;6186800;23;45138;-76
2022/10/18 16:59:38;;;;;;;2.80;1.60;;;20.80;98.30;;;;;;6185259;23;45451;-75
2022/10/18 17:02:08;;;;;;;3.22;1.80;;;20.70;98.30;;;;;;6184802;23;46265;-75
2022/10/18 17:04:34;;;;;;;4.35;1.75;;;20.80;98.30;;;;;;6185114;23;45192;-76
2022/10/18 17:07:03;;;;;;;3.15;1.83;;;20.80;98.30;;;;;;6185835;23;45232;-76
2022/10/18 17:09:33;;;;;;;4.80;1.60;;;20.80;98.20;;;;;;6183804;23;45294;-78
2022/10/18 17:12:00;;;;;;;6.18;1.85;;;20.80;98.00;;;;;;6185549;23;47437;-75
2022/10/18 17:14:27;;;;;;;4.43;1.88;;;20.80;98.00;;;;;;6185972;23;45091;-76
2022/10/18 17:16:54;;;;;;;3.25;1.98;;;20.80;98.20;;;;;;6186267;23;45276;-76
2022/10/18 17:19:21;;;;;;;6.65;1.60;;;20.80;98.10;;;;;;6186493;23;45404;-76
2022/10/18 17:21:48;;;;;;;3.53;1.70;;;20.80;98.10;;;;;;6186206;23;46796;-76
2022/10/18 17:24:16;;;;;;;2.60;1.60;;;20.80;98.00;;;;;;6185964;23;45209;-76
2022/10/18 17:26:43;;;;;;;4.32;1.95;;;20.70;98.10;;;;;;6186142;23;45209;-76
2022/10/18 17:29:09;;;;;;;2.92;1.48;;;20.70;98.20;;;;;;6186456;23;45142;-76
2022/10/18 17:31:36;;;;;;;2.58;1.50;;;20.70;98.20;;;;;;6185375;23;47798;-74
2022/10/18 17:34:08;;;;;;;3.95;1.90;;;20.70;98.30;;;;;;6186348;23;45726;-76
2022/10/18 17:36:35;;;;;;;3.22;1.80;;;20.70;98.20;;;;;;6186400;23;45127;-75
2022/10/18 17:39:02;;;;;;;2.65;1.50;;;20.70;98.20;;;;;;6186039;23;45412;-76
2022/10/18 17:41:30;;;;;;;2.92;1.65;;;20.70;98.20;;;;;;6185909;23;45422;-76
2022/10/18 17:43:57;;;;;;;3.22;1.70;;;20.70;98.20;;;;;;6185719;23;45756;-75
2022/10/18 17:46:24;;;;;;;3.28;1.60;;;20.70;98.20;;;;;;6185806;23;45282;-75
2022/10/18 17:48:59;;;;;;;4.68;1.92;;;20.70;98.20;;;;;;6186025;23;45351;-76
2022/10/18 17:51:36;;;;;;;4.55;1.25;;;20.70;98.20;;;;;;6185937;23;47309;-76
2022/10/18 17:54:20;;;;;;;3.10;1.50;;;20.70;98.20;;;;;;6185829;23;45208;-76
2022/10/18 18:00:12;;;;;;;2.33;1.63;;;20.70;98.10;;;;;;6186636;23;45345;-76
2022/10/18 18:02:39;;;;;;;5.80;1.98;;;20.70;98.10;;;;;;6181983;23;47497;-72
2022/10/18 18:05:07;;;;;;;52.55;4.45;;;20.80;98.00;;;;;;6181060;23;45353;-72
2022/10/18 18:07:34;;;;;;;37.33;4.63;;;20.80;98.10;;;;;;6183142;23;45230;-72
2022/10/18 18:10:01;;;;;;;33.50;4.55;;;20.90;98.50;;;;;;6182753;23;45216;-72
2022/10/18 18:12:28;;;;;;;14.55;3.15;;;20.90;98.50;;;;;;6181059;23;47296;-71
2022/10/18 18:14:54;;;;;;;11.10;2.40;;;20.80;98.40;;;;;;6182238;23;45320;-72
2022/10/18 18:17:23;;;;;;;12.82;2.40;;;20.80;98.00;;;;;;6182791;23;45387;-72
2022/10/18 18:19:49;;;;;;;9.07;2.22;;;20.80;97.90;;;;;;6182702;23;45450;-71
2022/10/18 18:22:16;;;;;;;15.07;2.50;;;20.80;98.00;;;;;;6183266;23;47942;-72
2022/10/18 18:24:43;;;;;;;7.80;2.15;;;20.80;97.90;;;;;;6182201;23;45257;-72
2022/10/18 18:27:10;;;;;;;15.00;2.63;;;20.80;98.00;;;;;;6182577;23;45174;-71
2022/10/18 18:29:37;;;;;;;5.82;2.08;;;20.80;98.00;;;;;;6183356;23;45312;-72
2022/10/18 18:32:04;;;;;;;7.53;1.80;;;20.80;98.00;;;;;;6183390;23;45319;-71
2022/10/18 18:34:32;;;;;;;10.25;2.30;;;20.80;98.20;;;;;;6183697;23;45775;-71
2022/10/18 18:36:59;;;;;;;7.82;2.25;;;20.80;98.20;;;;;;6182488;23;45381;-71
2022/10/18 18:39:28;;;;;;;7.28;2.00;;;20.70;98.20;;;;;;6183744;23;45308;-71
2022/10/18 18:41:55;;;;;;;9.85;2.10;;;20.70;98.20;;;;;;6182670;23;46487;-72
2022/10/18 18:44:23;;;;;;;7.00;1.92;;;20.70;98.30;;;;;;6184089;23;45304;-71
2022/10/18 18:46:50;;;;;;;7.10;1.85;;;20.70;98.20;;;;;;6183172;23;45309;-72
2022/10/18 18:49:17;;;;;;;7.18;2.00;;;20.70;98.30;;;;;;6183195;23;45424;-72
2022/10/18 18:51:45;;;;;;;4.53;1.95;;;20.70;98.30;;;;;;6183667;23;47002;-71
2022/10/18 18:54:13;;;;;;;8.40;2.00;;;20.70;98.30;;;;;;6182317;23;45243;-72
2022/10/18 18:56:42;;;;;;;7.45;2.35;;;20.70;98.20;;;;;;6180731;23;45339;-71
2022/10/18 18:59:09;;;;;;;4.03;1.77;;;20.70;98.20;;;;;;6183214;23;45408;-71
2022/10/18 19:01:36;;;;;;;4.32;1.80;;;20.70;98.10;;;;;;6182328;23;47011;-71
2022/10/18 19:04:06;;;;;;;5.82;1.92;;;20.70;98.00;;;;;;6182600;23;45217;-72
2022/10/18 19:06:35;;;;;;;4.90;1.88;;;20.70;98.00;;;;;;6182444;23;45254;-72
2022/10/18 19:09:06;;;;;;;3.95;1.80;;;20.70;98.00;;;;;;6183752;23;45555;-71
2022/10/18 19:11:36;;;;;;;7.57;2.03;;;20.70;98.00;;;;;;6183039;23;46682;-72
2022/10/18 19:14:04;;;;;;;6.22;2.03;;;20.70;98.00;;;;;;6183295;23;45478;-72
2022/10/18 19:16:33;;;;;;;5.43;1.83;;;20.70;98.00;;;;;;6181278;23;45234;-71
2022/10/18 19:19:01;;;;;;;5.53;1.77;;;20.70;98.00;;;;;;6181891;23;45491;-73
2022/10/18 19:21:29;;;;;;;2.72;1.65;;;20.70;97.90;;;;;;6183057;23;46542;-71
2022/10/18 19:23:56;;;;;;;3.25;1.88;;;20.70;97.90;;;;;;6182916;23;45230;-72
2022/10/18 19:26:28;;;;;;;3.22;1.67;;;20.70;97.90;;;;;;6182527;23;45274;-72
2022/10/18 19:29:00;;;;;;;5.00;1.50;;;20.70;98.00;;;;;;6183833;23;45219;-72
2022/10/18 19:31:26;;;;;;;4.38;1.60;;;20.70;98.00;;;;;;6183368;23;47755;-72
2022/10/18 19:33:53;;;;;;;3.47;1.52;;;20.70;98.20;;;;;;6183421;23;45209;-72
2022/10/18 19:36:20;;;;;;;5.75;1.92;;;20.70;98.20;;;;;;6182422;23;45286;-72
2022/10/18 19:38:47;;;;;;;2.70;1.55;;;20.70;98.10;;;;;;6182736;23;45229;-72
2022/10/18 19:41:13;;;;;;;4.80;1.80;;;20.70;98.00;;;;;;6183215;23;47560;-72
2022/10/18 19:43:41;;;;;;;2.42;1.40;;;20.70;98.20;;;;;;6181682;23;45803;-72
2022/10/18 19:46:08;;;;;;;4.50;1.92;;;20.70;98.20;;;;;;6183139;23;45284;-72
2022/10/18 19:48:35;;;;;;;2.47;1.50;;;20.70;98.20;;;;;;6182924;23;45403;-72
2022/10/18 19:51:04;;;;;;;2.75;1.20;;;20.70;98.10;;;;;;6182645;23;46589;-72
2022/10/18 19:53:32;;;;;;;4.18;1.80;;;20.70;98.00;;;;;;6183191;23;46057;-72
2022/10/18 19:55:59;;;;;;;2.88;1.60;;;20.70;98.00;;;;;;6181886;23;45321;-73
2022/10/18 19:58:26;;;;;;;3.45;1.40;;;20.70;98.00;;;;;;6182556;23;45269;-72
2022/10/18 20:00:55;;;;;;;2.25;1.38;;;20.70;97.90;;;;;;6182004;23;46269;-72
2022/10/18 20:03:22;;;;;;;5.60;2.10;;;20.70;98.00;;;;;;6181520;23;45232;-72
2022/10/18 20:05:55;;;;;;;2.42;1.30;;;20.70;97.80;;;;;;6183057;23;45357;-73
2022/10/18 20:08:22;;;;;;;2.78;1.25;;;20.70;97.80;;;;;;6182907;23;45531;-72
2022/10/18 20:10:49;;;;;;;1.65;1.20;;;20.70;97.70;;;;;;6182673;23;46316;-72
2022/10/18 20:13:16;;;;;;;1.88;1.40;;;20.70;97.70;;;;;;6182143;23;45329;-72
2022/10/18 20:15:46;;;;;;;2.88;1.20;;;20.70;97.50;;;;;;6181776;23;45202;-72
2022/10/18 20:18:15;;;;;;;2.38;1.15;;;20.70;97.50;;;;;;6183645;23;45417;-72
2022/10/18 20:20:42;;;;;;;4.47;1.40;;;20.70;97.40;;;;;;6182292;23;46063;-72
2022/10/18 20:23:09;;;;;;;3.47;1.40;;;20.70;97.30;;;;;;6181721;23;45285;-72
2022/10/18 20:25:36;;;;;;;4.65;1.40;;;20.70;97.20;;;;;;6179146;23;45265;-72
2022/10/18 20:28:03;;;;;;;4.40;1.52;;;20.60;97.30;;;;;;6182572;23;45556;-72
2022/10/18 20:30:29;;;;;;;3.25;1.50;;;20.60;97.30;;;;;;6183861;23;48706;-72
2022/10/18 20:32:56;;;;;;;3.10;1.00;;;20.60;97.30;;;;;;6184070;23;45187;-72
2022/10/18 20:35:25;;;;;;;3.30;1.58;;;20.60;97.40;;;;;;6185093;23;45324;-72
2022/10/18 20:37:51;;;;;;;2.83;1.27;;;20.60;97.40;;;;;;6184385;23;45304;-72
2022/10/18 20:40:18;;;;;;;3.40;1.60;;;20.60;97.30;;;;;;6182013;23;47421;-73
2022/10/18 20:42:45;;;;;;;1.35;1.00;;;20.60;97.30;;;;;;6183849;23;45340;-72
2022/10/18 20:45:12;;;;;;;4.22;1.25;;;20.60;97.30;;;;;;6183757;23;45365;-72
2022/10/18 20:47:38;;;;;;;2.38;1.00;;;20.60;97.30;;;;;;6184299;23;45222;-72
2022/10/18 20:50:06;;;;;;;2.00;1.10;;;20.60;97.30;;;;;;6184127;23;47617;-72
2022/10/18 20:52:34;;;;;;;2.55;1.17;;;20.60;97.30;;;;;;6185025;23;45325;-72
2022/10/18 20:55:00;;;;;;;2.85;1.15;;;20.60;97.20;;;;;;6184909;23;45317;-72
2022/10/18 20:57:29;;;;;;;3.42;1.35;;;20.60;97.10;;;;;;6185283;23;45421;-73
2022/10/18 20:59:56;;;;;;;2.33;1.20;;;20.60;96.90;;;;;;6184128;23;48571;-72
2022/10/18 21:02:23;;;;;;;3.13;1.30;;;20.60;96.80;;;;;;6184146;23;45296;-72
2022/10/18 21:04:50;;;;;;;1.73;1.13;;;20.60;97.00;;;;;;6184372;23;45150;-72
2022/10/18 21:07:16;;;;;;;2.25;1.30;;;20.60;96.60;;;;;;6183905;23;45534;-72
2022/10/18 21:09:45;;;;;;;2.65;1.27;;;20.60;96.50;;;;;;6184204;23;46686;-72
2022/10/18 21:12:11;;;;;;;2.92;1.42;;;20.60;96.40;;;;;;6184240;23;45340;-72
2022/10/18 21:14:38;;;;;;;1.73;1.10;;;20.60;96.30;;;;;;6183602;23;45206;-73
2022/10/18 21:17:05;;;;;;;5.32;1.40;;;20.60;96.20;;;;;;6184896;23;45214;-72
2022/10/18 21:19:32;;;;;;;3.35;1.48;;;20.60;96.10;;;;;;6183937;23;48034;-72
2022/10/18 21:21:59;;;;;;;2.65;1.27;;;20.60;96.10;;;;;;6184250;23;45248;-73
2022/10/18 21:24:26;;;;;;;2.20;0.98;;;20.70;96.00;;;;;;6184478;23;45328;-73
2022/10/18 21:26:54;;;;;;;3.80;1.00;;;20.60;95.90;;;;;;6184051;23;45261;-73
2022/10/18 21:29:23;;;;;;;1.63;1.02;;;20.60;95.90;;;;;;6184042;23;45312;-72
2022/10/18 21:31:53;;;;;;;3.03;1.00;;;20.60;95.90;;;;;;6184067;23;45309;-72
2022/10/18 21:34:20;;;;;;;2.45;1.17;;;20.60;95.80;;;;;;6184489;23;45285;-72
2022/10/18 21:36:48;;;;;;;2.25;1.27;;;20.70;95.70;;;;;;6184022;23;45292;-72
2022/10/18 21:39:16;;;;;;;2.83;1.10;;;20.60;95.70;;;;;;6184071;23;45518;-72
2022/10/18 21:41:43;;;;;;;2.50;0.95;;;20.60;95.60;;;;;;6184990;23;45608;-72
2022/10/18 21:44:12;;;;;;;3.15;1.27;;;20.60;95.60;;;;;;6185344;23;45162;-72
2022/10/18 21:46:41;;;;;;;2.50;1.30;;;20.70;95.60;;;;;;6185903;23;45217;-73
2022/10/18 21:49:09;;;;;;;2.67;1.23;;;20.70;95.60;;;;;;6185247;23;47416;-73
2022/10/18 21:51:35;;;;;;;4.13;1.20;;;20.60;95.60;;;;;;6185705;23;46021;-72
2022/10/18 21:54:02;;;;;;;2.72;1.20;;;20.60;95.40;;;;;;6185221;23;45261;-73
2022/10/18 21:56:34;;;;;;;2.85;1.20;;;20.60;95.40;;;;;;6185176;23;45411;-72
2022/10/18 21:59:01;;;;;;;2.13;1.10;;;20.60;95.60;;;;;;6185412;23;45213;-73
2022/10/18 22:01:31;;;;;;;2.25;1.05;;;20.60;95.50;;;;;;6185125;23;45278;-73
2022/10/18 22:03:59;;;;;;;3.47;1.10;;;20.60;95.50;;;;;;6185358;23;45325;-73
2022/10/18 22:06:28;;;;;;;2.20;0.80;;;20.60;95.60;;;;;;6184834;23;45158;-73
2022/10/18 22:08:56;;;;;;;1.38;1.00;;;20.60;95.70;;;;;;6185496;23;46686;-73
2022/10/18 22:11:25;;;;;;;1.50;1.00;;;20.60;95.50;;;;;;6185727;23;45293;-73
2022/10/18 22:13:52;;;;;;;2.35;1.08;;;20.60;95.70;;;;;;6185113;23;45267;-73
2022/10/18 22:16:20;;;;;;;1.58;0.88;;;20.60;95.60;;;;;;6184977;23;45307;-73
2022/10/18 22:18:49;;;;;;;1.30;1.00;;;20.60;95.70;;;;;;6184862;23;48173;-73
2022/10/18 22:21:18;;;;;;;2.13;1.05;;;20.60;95.50;;;;;;6185716;23;45187;-72
2022/10/18 22:23:46;;;;;;;1.45;0.88;;;20.60;95.30;;;;;;6184810;23;45366;-73
2022/10/18 22:26:14;;;;;;;2.05;0.90;;;20.60;95.40;;;;;;6184460;23;45258;-73
2022/10/18 22:28:43;;;;;;;0.75;0.70;;;20.60;95.50;;;;;;6184714;23;47623;-73
2022/10/18 22:31:14;;;;;;;1.67;0.90;;;20.60;95.40;;;;;;6184537;23;45415;-73
2022/10/18 22:33:40;;;;;;;1.35;0.80;;;20.60;95.40;;;;;;6186164;23;45182;-73
2022/10/18 22:36:09;;;;;;;2.00;0.85;;;20.60;95.10;;;;;;6185843;23;45169;-73
2022/10/18 22:38:36;;;;;;;1.30;0.80;;;20.70;95.20;;;;;;6185431;23;48342;-72
2022/10/18 22:41:04;;;;;;;1.52;1.00;;;20.60;95.30;;;;;;6185249;23;45365;-73
2022/10/18 22:43:31;;;;;;;1.50;0.93;;;20.70;95.10;;;;;;6185364;23;45198;-73
2022/10/18 22:46:00;;;;;;;2.40;0.90;;;20.70;95.20;;;;;;6185748;23;45090;-73
2022/10/18 22:48:27;;;;;;;2.13;1.00;;;20.70;95.10;;;;;;6185970;23;45381;-73
2022/10/18 22:50:53;;;;;;;3.38;1.20;;;20.70;95.00;;;;;;6185591;23;45177;-73
2022/10/18 22:53:21;;;;;;;2.35;0.95;;;20.70;95.10;;;;;;6185197;23;45159;-73
2022/10/18 22:55:49;;;;;;;1.65;0.82;;;20.70;95.10;;;;;;6185912;23;45496;-73
2022/10/18 22:58:16;;;;;;;3.72;1.45;;;20.70;94.90;;;;;;6185710;23;48521;-73
2022/10/18 23:00:42;;;;;;;2.55;0.90;;;20.70;95.00;;;;;;6185750;23;45185;-73
2022/10/18 23:03:09;;;;;;;1.73;0.98;;;20.70;95.00;;;;;;6186052;23;45289;-73
2022/10/18 23:05:37;;;;;;;1.40;0.82;;;20.70;95.00;;;;;;6185586;23;45149;-73
2022/10/18 23:08:04;;;;;;;1.70;0.95;;;20.70;95.00;;;;;;6185145;23;45871;-73
2022/10/18 23:10:32;;;;;;;1.48;0.90;;;20.70;94.90;;;;;;6185409;23;45320;-74
2022/10/18 23:12:59;;;;;;;2.28;1.05;;;20.70;95.00;;;;;;6182007;23;45476;-73
2022/10/18 23:15:26;;;;;;;2.17;0.98;;;20.70;94.80;;;;;;6184505;23;45670;-73
2022/10/18 23:17:53;;;;;;;2.60;1.00;;;20.70;94.80;;;;;;6184802;23;46043;-73
2022/10/18 23:20:20;;;;;;;1.75;0.90;;;20.70;94.40;;;;;;6185065;23;45211;-73